sensor_id;sensor_type;location;lat;lon;timestamp;temperature;humidity
43320;DHT22;28914;48.722;9.332;2023-07-31T00:01:15;17.80;72.60
43320;DHT22;28914;48.722;9.332;2023-07-31T00:06:34;17.70;72.10
43320;DHT22;28914;48.722;9.332;2023-07-31T00:11:54;17.70;72.50
43320;DHT22;28914;48.722;9.332;2023-07-31T00:17:12;17.70;72.30
43320;DHT22;28914;48.722;9.332;2023-07-31T00:22:32;17.60;73.40
43320;DHT22;28914;48.722;9.332;2023-07-31T00:27:51;17.50;73.40
43320;DHT22;28914;48.722;9.332;2023-07-31T00:33:10;17.40;73.10
43320;DHT22;28914;48.722;9.332;2023-07-31T00:38:30;17.40;73.20
43320;DHT22;28914;48.722;9.332;2023-07-31T00:43:49;17.40;73.20
43320;DHT22;28914;48.722;9.332;2023-07-31T00:49:08;17.30;73.40
43320;DHT22;28914;48.722;9.332;2023-07-31T00:54:28;17.20;74.20
43320;DHT22;28914;48.722;9.332;2023-07-31T00:59:47;17.10;74.20
43320;DHT22;28914;48.722;9.332;2023-07-31T01:05:07;17.10;74.70
43320;DHT22;28914;48.722;9.332;2023-07-31T01:10:32;17.00;74.90
43320;DHT22;28914;48.722;9.332;2023-07-31T01:15:53;16.90;75.40
43320;DHT22;28914;48.722;9.332;2023-07-31T01:27:10;16.80;75.10
43320;DHT22;28914;48.722;9.332;2023-07-31T01:32:30;16.70;75.90
43320;DHT22;28914;48.722;9.332;2023-07-31T01:37:52;16.60;75.40
43320;DHT22;28914;48.722;9.332;2023-07-31T01:43:12;16.60;75.70
43320;DHT22;28914;48.722;9.332;2023-07-31T01:48:31;16.60;75.70
43320;DHT22;28914;48.722;9.332;2023-07-31T01:53:54;16.60;76.00
43320;DHT22;28914;48.722;9.332;2023-07-31T01:59:13;16.50;76.80
43320;DHT22;28914;48.722;9.332;2023-07-31T02:04:32;16.50;76.30
43320;DHT22;28914;48.722;9.332;2023-07-31T02:09:51;16.50;76.60
43320;DHT22;28914;48.722;9.332;2023-07-31T02:15:10;16.40;77.10
43320;DHT22;28914;48.722;9.332;2023-07-31T02:20:29;16.40;77.20
43320;DHT22;28914;48.722;9.332;2023-07-31T02:25:49;16.30;77.20
43320;DHT22;28914;48.722;9.332;2023-07-31T02:31:08;16.30;77.90
43320;DHT22;28914;48.722;9.332;2023-07-31T02:36:27;16.20;77.50
43320;DHT22;28914;48.722;9.332;2023-07-31T02:41:47;16.10;77.60
43320;DHT22;28914;48.722;9.332;2023-07-31T02:47:06;16.10;77.70
43320;DHT22;28914;48.722;9.332;2023-07-31T02:52:25;16.10;77.90
43320;DHT22;28914;48.722;9.332;2023-07-31T02:57:45;16.10;78.00
43320;DHT22;28914;48.722;9.332;2023-07-31T03:03:04;16.10;78.30
43320;DHT22;28914;48.722;9.332;2023-07-31T03:08:23;16.00;78.70
43320;DHT22;28914;48.722;9.332;2023-07-31T03:13:42;16.00;79.00
43320;DHT22;28914;48.722;9.332;2023-07-31T03:19:01;16.00;79.30
43320;DHT22;28914;48.722;9.332;2023-07-31T03:24:21;16.00;79.20
43320;DHT22;28914;48.722;9.332;2023-07-31T03:29:40;16.00;79.20
43320;DHT22;28914;48.722;9.332;2023-07-31T03:34:59;15.90;79.10
43320;DHT22;28914;48.722;9.332;2023-07-31T03:40:18;15.90;79.00
43320;DHT22;28914;48.722;9.332;2023-07-31T03:45:37;15.90;79.20
43320;DHT22;28914;48.722;9.332;2023-07-31T03:50:57;15.90;80.00
43320;DHT22;28914;48.722;9.332;2023-07-31T03:56:16;15.80;80.30
43320;DHT22;28914;48.722;9.332;2023-07-31T04:01:35;15.80;79.80
43320;DHT22;28914;48.722;9.332;2023-07-31T04:06:54;15.80;79.90
43320;DHT22;28914;48.722;9.332;2023-07-31T04:12:13;15.80;80.20
43320;DHT22;28914;48.722;9.332;2023-07-31T04:17:33;15.80;80.10
43320;DHT22;28914;48.722;9.332;2023-07-31T04:22:52;15.80;80.10
43320;DHT22;28914;48.722;9.332;2023-07-31T04:28:11;15.90;80.70
43320;DHT22;28914;48.722;9.332;2023-07-31T04:33:30;16.00;81.50
43320;DHT22;28914;48.722;9.332;2023-07-31T04:38:50;16.10;81.10
43320;DHT22;28914;48.722;9.332;2023-07-31T04:44:09;16.20;81.30
43320;DHT22;28914;48.722;9.332;2023-07-31T04:49:31;16.30;81.70
43320;DHT22;28914;48.722;9.332;2023-07-31T04:54:50;16.40;81.30
43320;DHT22;28914;48.722;9.332;2023-07-31T05:00:10;16.50;81.30
43320;DHT22;28914;48.722;9.332;2023-07-31T05:05:29;16.60;81.20
43320;DHT22;28914;48.722;9.332;2023-07-31T05:10:48;16.70;81.20
43320;DHT22;28914;48.722;9.332;2023-07-31T05:16:07;16.80;81.10
43320;DHT22;28914;48.722;9.332;2023-07-31T05:21:27;16.90;81.00
43320;DHT22;28914;48.722;9.332;2023-07-31T05:26:46;17.00;80.70
43320;DHT22;28914;48.722;9.332;2023-07-31T05:32:05;17.10;80.70
43320;DHT22;28914;48.722;9.332;2023-07-31T05:37:25;17.20;80.50
43320;DHT22;28914;48.722;9.332;2023-07-31T05:42:44;17.40;80.40
43320;DHT22;28914;48.722;9.332;2023-07-31T05:48:04;17.40;80.20
43320;DHT22;28914;48.722;9.332;2023-07-31T05:53:22;17.60;80.40
43320;DHT22;28914;48.722;9.332;2023-07-31T05:58:42;17.70;80.40
43320;DHT22;28914;48.722;9.332;2023-07-31T06:04:01;17.90;80.90
43320;DHT22;28914;48.722;9.332;2023-07-31T06:09:22;18.10;80.80
43320;DHT22;28914;48.722;9.332;2023-07-31T06:14:41;18.40;79.60
43320;DHT22;28914;48.722;9.332;2023-07-31T06:20:00;18.70;79.00
43320;DHT22;28914;48.722;9.332;2023-07-31T06:25:19;18.90;78.60
43320;DHT22;28914;48.722;9.332;2023-07-31T06:30:38;19.20;79.00
43320;DHT22;28914;48.722;9.332;2023-07-31T06:35:57;19.60;79.10
43320;DHT22;28914;48.722;9.332;2023-07-31T06:41:17;20.00;77.50
43320;DHT22;28914;48.722;9.332;2023-07-31T06:46:36;20.30;76.70
43320;DHT22;28914;48.722;9.332;2023-07-31T06:51:55;20.60;75.70
43320;DHT22;28914;48.722;9.332;2023-07-31T06:57:14;20.90;73.90
43320;DHT22;28914;48.722;9.332;2023-07-31T07:02:33;21.20;74.30
43320;DHT22;28914;48.722;9.332;2023-07-31T07:07:53;21.50;73.50
43320;DHT22;28914;48.722;9.332;2023-07-31T07:13:12;22.00;73.70
43320;DHT22;28914;48.722;9.332;2023-07-31T07:18:32;22.50;71.60
43320;DHT22;28914;48.722;9.332;2023-07-31T07:23:51;23.00;69.20
43320;DHT22;28914;48.722;9.332;2023-07-31T07:29:10;23.50;68.30
43320;DHT22;28914;48.722;9.332;2023-07-31T07:34:30;24.00;66.20
43320;DHT22;28914;48.722;9.332;2023-07-31T07:39:49;24.80;63.80
43320;DHT22;28914;48.722;9.332;2023-07-31T07:45:08;25.60;63.30
43320;DHT22;28914;48.722;9.332;2023-07-31T07:50:28;26.10;60.90
43320;DHT22;28914;48.722;9.332;2023-07-31T07:55:48;26.20;59.30
43320;DHT22;28914;48.722;9.332;2023-07-31T08:01:07;26.20;58.50
43320;DHT22;28914;48.722;9.332;2023-07-31T08:06:27;26.20;59.50
43320;DHT22;28914;48.722;9.332;2023-07-31T08:11:46;26.40;58.70
43320;DHT22;28914;48.722;9.332;2023-07-31T08:17:06;26.60;59.40
43320;DHT22;28914;48.722;9.332;2023-07-31T08:22:25;27.10;58.10
43320;DHT22;28914;48.722;9.332;2023-07-31T08:27:44;28.00;60.70
43320;DHT22;28914;48.722;9.332;2023-07-31T08:33:04;29.30;54.60
43320;DHT22;28914;48.722;9.332;2023-07-31T08:38:23;30.70;54.50
43320;DHT22;28914;48.722;9.332;2023-07-31T08:43:45;32.20;52.30
43320;DHT22;28914;48.722;9.332;2023-07-31T08:49:05;33.70;49.30
43320;DHT22;28914;48.722;9.332;2023-07-31T08:54:28;35.10;44.30
43320;DHT22;28914;48.722;9.332;2023-07-31T08:59:50;36.30;44.70
43320;DHT22;28914;48.722;9.332;2023-07-31T09:05:11;37.70;43.80
43320;DHT22;28914;48.722;9.332;2023-07-31T09:10:30;39.00;43.60
43320;DHT22;28914;48.722;9.332;2023-07-31T09:15:49;40.10;40.80
43320;DHT22;28914;48.722;9.332;2023-07-31T09:21:09;41.30;40.90
43320;DHT22;28914;48.722;9.332;2023-07-31T09:26:35;42.00;36.70
43320;DHT22;28914;48.722;9.332;2023-07-31T09:31:55;42.00;35.70
43320;DHT22;28914;48.722;9.332;2023-07-31T09:37:15;41.70;36.30
43320;DHT22;28914;48.722;9.332;2023-07-31T09:42:34;41.40;34.60
43320;DHT22;28914;48.722;9.332;2023-07-31T09:47:54;40.80;33.50
43320;DHT22;28914;48.722;9.332;2023-07-31T09:53:13;40.00;33.30
43320;DHT22;28914;48.722;9.332;2023-07-31T09:58:34;39.20;33.80
43320;DHT22;28914;48.722;9.332;2023-07-31T10:03:53;38.20;35.10
43320;DHT22;28914;48.722;9.332;2023-07-31T10:09:15;37.50;36.50
43320;DHT22;28914;48.722;9.332;2023-07-31T10:14:37;36.90;37.40
43320;DHT22;28914;48.722;9.332;2023-07-31T10:19:58;36.40;37.20
43320;DHT22;28914;48.722;9.332;2023-07-31T10:25:22;36.10;36.90
43320;DHT22;28914;48.722;9.332;2023-07-31T10:30:42;35.30;36.20
43320;DHT22;28914;48.722;9.332;2023-07-31T10:36:13;34.50;38.50
43320;DHT22;28914;48.722;9.332;2023-07-31T10:41:32;34.30;39.40
43320;DHT22;28914;48.722;9.332;2023-07-31T10:46:54;35.00;37.60
43320;DHT22;28914;48.722;9.332;2023-07-31T10:52:14;35.80;37.10
43320;DHT22;28914;48.722;9.332;2023-07-31T10:57:37;36.50;38.00
43320;DHT22;28914;48.722;9.332;2023-07-31T11:02:58;37.50;36.60
43320;DHT22;28914;48.722;9.332;2023-07-31T11:08:23;37.60;34.90
43320;DHT22;28914;48.722;9.332;2023-07-31T11:13:46;37.70;36.40
43320;DHT22;28914;48.722;9.332;2023-07-31T11:19:08;38.20;36.50
43320;DHT22;28914;48.722;9.332;2023-07-31T11:24:27;38.10;35.80
43320;DHT22;28914;48.722;9.332;2023-07-31T11:29:47;37.50;35.00
43320;DHT22;28914;48.722;9.332;2023-07-31T11:35:06;36.90;36.20
43320;DHT22;28914;48.722;9.332;2023-07-31T11:40:28;36.40;35.80
43320;DHT22;28914;48.722;9.332;2023-07-31T11:46:00;35.80;36.80
43320;DHT22;28914;48.722;9.332;2023-07-31T11:51:22;35.20;37.10
43320;DHT22;28914;48.722;9.332;2023-07-31T11:56:41;34.50;37.30
43320;DHT22;28914;48.722;9.332;2023-07-31T12:02:01;33.70;38.00
43320;DHT22;28914;48.722;9.332;2023-07-31T12:07:20;32.90;38.50
43320;DHT22;28914;48.722;9.332;2023-07-31T12:12:39;32.20;39.00
43320;DHT22;28914;48.722;9.332;2023-07-31T12:17:58;31.60;39.90
43320;DHT22;28914;48.722;9.332;2023-07-31T12:23:23;31.00;40.70
43320;DHT22;28914;48.722;9.332;2023-07-31T12:28:48;30.50;41.40
43320;DHT22;28914;48.722;9.332;2023-07-31T12:34:18;30.10;42.10
43320;DHT22;28914;48.722;9.332;2023-07-31T12:39:40;29.70;42.80
43320;DHT22;28914;48.722;9.332;2023-07-31T12:44:59;29.40;43.20
43320;DHT22;28914;48.722;9.332;2023-07-31T12:50:18;29.20;43.70
43320;DHT22;28914;48.722;9.332;2023-07-31T12:55:37;29.00;44.10
43320;DHT22;28914;48.722;9.332;2023-07-31T13:00:56;28.80;44.00
43320;DHT22;28914;48.722;9.332;2023-07-31T13:06:15;28.60;44.50
43320;DHT22;28914;48.722;9.332;2023-07-31T13:11:35;28.50;44.80
43320;DHT22;28914;48.722;9.332;2023-07-31T13:16:54;28.40;45.10
43320;DHT22;28914;48.722;9.332;2023-07-31T13:22:13;28.30;45.70
43320;DHT22;28914;48.722;9.332;2023-07-31T13:27:32;28.20;45.80
43320;DHT22;28914;48.722;9.332;2023-07-31T13:32:52;28.10;45.90
43320;DHT22;28914;48.722;9.332;2023-07-31T13:38:11;28.10;46.20
43320;DHT22;28914;48.722;9.332;2023-07-31T13:43:30;28.00;46.40
43320;DHT22;28914;48.722;9.332;2023-07-31T13:48:50;27.90;46.30
43320;DHT22;28914;48.722;9.332;2023-07-31T13:54:09;27.80;46.60
43320;DHT22;28914;48.722;9.332;2023-07-31T13:59:30;27.70;46.60
43320;DHT22;28914;48.722;9.332;2023-07-31T14:04:49;27.70;47.00
43320;DHT22;28914;48.722;9.332;2023-07-31T14:10:09;27.70;48.10
43320;DHT22;28914;48.722;9.332;2023-07-31T14:15:28;27.80;48.60
43320;DHT22;28914;48.722;9.332;2023-07-31T14:20:47;28.00;48.60
43320;DHT22;28914;48.722;9.332;2023-07-31T14:26:07;28.20;48.20
43320;DHT22;28914;48.722;9.332;2023-07-31T14:31:26;28.30;48.30
43320;DHT22;28914;48.722;9.332;2023-07-31T14:36:45;28.40;48.30
43320;DHT22;28914;48.722;9.332;2023-07-31T14:42:05;28.50;48.60
43320;DHT22;28914;48.722;9.332;2023-07-31T14:47:24;28.70;48.40
43320;DHT22;28914;48.722;9.332;2023-07-31T14:52:44;28.80;47.90
43320;DHT22;28914;48.722;9.332;2023-07-31T14:58:03;28.90;47.60
43320;DHT22;28914;48.722;9.332;2023-07-31T15:03:22;28.80;47.90
43320;DHT22;28914;48.722;9.332;2023-07-31T15:08:44;28.80;47.50
43320;DHT22;28914;48.722;9.332;2023-07-31T15:14:03;28.80;47.10
43320;DHT22;28914;48.722;9.332;2023-07-31T15:19:22;28.80;47.10
43320;DHT22;28914;48.722;9.332;2023-07-31T15:24:42;28.80;47.00
43320;DHT22;28914;48.722;9.332;2023-07-31T15:30:01;28.80;47.10
43320;DHT22;28914;48.722;9.332;2023-07-31T15:35:23;28.70;46.80
43320;DHT22;28914;48.722;9.332;2023-07-31T15:40:42;28.60;47.10
43320;DHT22;28914;48.722;9.332;2023-07-31T15:46:01;28.60;47.00
43320;DHT22;28914;48.722;9.332;2023-07-31T15:51:21;28.50;46.90
43320;DHT22;28914;48.722;9.332;2023-07-31T15:56:41;28.50;47.00
43320;DHT22;28914;48.722;9.332;2023-07-31T16:02:00;28.40;46.90
43320;DHT22;28914;48.722;9.332;2023-07-31T16:07:20;28.30;47.20
43320;DHT22;28914;48.722;9.332;2023-07-31T16:12:40;28.40;47.50
43320;DHT22;28914;48.722;9.332;2023-07-31T16:17:59;28.40;47.10
43320;DHT22;28914;48.722;9.332;2023-07-31T16:23:18;28.40;47.00
43320;DHT22;28914;48.722;9.332;2023-07-31T16:28:37;28.30;47.10
43320;DHT22;28914;48.722;9.332;2023-07-31T16:33:57;28.30;47.60
43320;DHT22;28914;48.722;9.332;2023-07-31T16:39:17;28.30;47.50
43320;DHT22;28914;48.722;9.332;2023-07-31T16:44:36;28.30;47.90
43320;DHT22;28914;48.722;9.332;2023-07-31T16:49:56;28.30;47.80
43320;DHT22;28914;48.722;9.332;2023-07-31T16:55:15;28.20;47.60
43320;DHT22;28914;48.722;9.332;2023-07-31T17:00:34;28.00;47.80
43320;DHT22;28914;48.722;9.332;2023-07-31T17:05:53;27.90;48.10
43320;DHT22;28914;48.722;9.332;2023-07-31T17:11:12;27.80;48.60
43320;DHT22;28914;48.722;9.332;2023-07-31T17:16:34;27.70;49.50
43320;DHT22;28914;48.722;9.332;2023-07-31T17:21:54;27.50;49.10
43320;DHT22;28914;48.722;9.332;2023-07-31T17:27:13;27.40;49.40
43320;DHT22;28914;48.722;9.332;2023-07-31T17:32:32;27.30;49.20
43320;DHT22;28914;48.722;9.332;2023-07-31T17:37:51;27.20;50.40
43320;DHT22;28914;48.722;9.332;2023-07-31T17:43:11;27.00;50.40
43320;DHT22;28914;48.722;9.332;2023-07-31T17:48:31;26.80;50.90
43320;DHT22;28914;48.722;9.332;2023-07-31T17:53:50;26.70;51.40
43320;DHT22;28914;48.722;9.332;2023-07-31T17:59:10;26.50;51.90
43320;DHT22;28914;48.722;9.332;2023-07-31T18:04:29;26.40;52.00
43320;DHT22;28914;48.722;9.332;2023-07-31T18:09:48;26.20;52.40
43320;DHT22;28914;48.722;9.332;2023-07-31T18:15:08;26.10;52.70
43320;DHT22;28914;48.722;9.332;2023-07-31T18:20:27;26.00;53.40
43320;DHT22;28914;48.722;9.332;2023-07-31T18:25:47;25.80;53.70
43320;DHT22;28914;48.722;9.332;2023-07-31T18:31:06;25.70;53.90
43320;DHT22;28914;48.722;9.332;2023-07-31T18:36:26;25.60;54.40
43320;DHT22;28914;48.722;9.332;2023-07-31T18:41:45;25.50;54.60
43320;DHT22;28914;48.722;9.332;2023-07-31T18:47:04;25.30;55.50
43320;DHT22;28914;48.722;9.332;2023-07-31T18:52:23;25.30;54.90
43320;DHT22;28914;48.722;9.332;2023-07-31T18:57:43;25.20;55.40
43320;DHT22;28914;48.722;9.332;2023-07-31T19:03:02;25.10;56.30
43320;DHT22;28914;48.722;9.332;2023-07-31T19:08:21;25.00;57.40
43320;DHT22;28914;48.722;9.332;2023-07-31T19:13:40;24.80;58.30
43320;DHT22;28914;48.722;9.332;2023-07-31T19:19:00;24.60;59.00
43320;DHT22;28914;48.722;9.332;2023-07-31T19:24:18;24.40;59.60
43320;DHT22;28914;48.722;9.332;2023-07-31T19:29:39;24.20;60.20
43320;DHT22;28914;48.722;9.332;2023-07-31T19:34:58;24.00;60.90
43320;DHT22;28914;48.722;9.332;2023-07-31T19:40:20;23.80;62.10
43320;DHT22;28914;48.722;9.332;2023-07-31T19:45:40;23.70;62.80
43320;DHT22;28914;48.722;9.332;2023-07-31T19:50:59;23.50;63.40
43320;DHT22;28914;48.722;9.332;2023-07-31T19:56:18;23.40;64.20
43320;DHT22;28914;48.722;9.332;2023-07-31T20:01:38;23.20;66.30
43320;DHT22;28914;48.722;9.332;2023-07-31T20:06:57;23.10;66.10
43320;DHT22;28914;48.722;9.332;2023-07-31T20:12:16;22.90;66.60
43320;DHT22;28914;48.722;9.332;2023-07-31T20:17:35;22.80;66.80
43320;DHT22;28914;48.722;9.332;2023-07-31T20:22:55;22.70;66.90
43320;DHT22;28914;48.722;9.332;2023-07-31T20:28:14;22.70;69.00
43320;DHT22;28914;48.722;9.332;2023-07-31T20:33:34;22.60;69.40
43320;DHT22;28914;48.722;9.332;2023-07-31T20:38:53;22.40;69.50
43320;DHT22;28914;48.722;9.332;2023-07-31T20:44:12;22.30;70.60
43320;DHT22;28914;48.722;9.332;2023-07-31T20:49:31;22.30;71.50
43320;DHT22;28914;48.722;9.332;2023-07-31T20:54:51;22.10;70.40
43320;DHT22;28914;48.722;9.332;2023-07-31T21:00:11;22.10;71.10
43320;DHT22;28914;48.722;9.332;2023-07-31T21:05:33;22.00;71.50
43320;DHT22;28914;48.722;9.332;2023-07-31T21:10:53;22.00;72.30
43320;DHT22;28914;48.722;9.332;2023-07-31T21:16:12;21.90;72.10
43320;DHT22;28914;48.722;9.332;2023-07-31T21:21:31;21.90;72.10
43320;DHT22;28914;48.722;9.332;2023-07-31T21:26:51;21.80;72.80
43320;DHT22;28914;48.722;9.332;2023-07-31T21:32:10;21.80;73.30
43320;DHT22;28914;48.722;9.332;2023-07-31T21:37:30;21.80;73.60
43320;DHT22;28914;48.722;9.332;2023-07-31T21:42:49;21.70;73.90
43320;DHT22;28914;48.722;9.332;2023-07-31T21:48:08;21.70;74.10
43320;DHT22;28914;48.722;9.332;2023-07-31T21:53:27;21.60;73.80
43320;DHT22;28914;48.722;9.332;2023-07-31T21:58:47;21.60;74.10
43320;DHT22;28914;48.722;9.332;2023-07-31T22:04:06;21.60;75.10
43320;DHT22;28914;48.722;9.332;2023-07-31T22:09:25;21.50;75.00
43320;DHT22;28914;48.722;9.332;2023-07-31T22:14:44;21.50;74.80
43320;DHT22;28914;48.722;9.332;2023-07-31T22:20:04;21.40;75.20
43320;DHT22;28914;48.722;9.332;2023-07-31T22:25:24;21.40;75.40
43320;DHT22;28914;48.722;9.332;2023-07-31T22:30:43;21.40;76.20
43320;DHT22;28914;48.722;9.332;2023-07-31T22:36:02;21.40;77.10
43320;DHT22;28914;48.722;9.332;2023-07-31T22:41:22;21.40;77.10
43320;DHT22;28914;48.722;9.332;2023-07-31T22:46:41;21.30;76.70
43320;DHT22;28914;48.722;9.332;2023-07-31T22:52:00;21.30;77.20
43320;DHT22;28914;48.722;9.332;2023-07-31T22:57:19;21.30;77.00
43320;DHT22;28914;48.722;9.332;2023-07-31T23:02:38;21.30;77.20
43320;DHT22;28914;48.722;9.332;2023-07-31T23:07:57;21.30;77.50
43320;DHT22;28914;48.722;9.332;2023-07-31T23:13:17;21.30;77.90
43320;DHT22;28914;48.722;9.332;2023-07-31T23:18:36;21.30;77.70
43320;DHT22;28914;48.722;9.332;2023-07-31T23:23:55;21.30;78.50
43320;DHT22;28914;48.722;9.332;2023-07-31T23:29:14;21.30;78.20
43320;DHT22;28914;48.722;9.332;2023-07-31T23:34:34;21.30;78.20
43320;DHT22;28914;48.722;9.332;2023-07-31T23:39:53;21.30;78.30
43320;DHT22;28914;48.722;9.332;2023-07-31T23:45:14;21.30;78.70
43320;DHT22;28914;48.722;9.332;2023-07-31T23:50:33;21.30;79.00
43320;DHT22;28914;48.722;9.332;2023-07-31T23:55:52;21.30;79.10
